Terminal Aerodrome Forecast
Issued by NWS Sterling, VA

Current Version | Previous Version | Text Only | Print | Product List | Glossary Off
Versions: 1 2 3 4 5 6 7 8 9 10 11 12 13 14 15 16 17 18 19 20 21 22 23

348
FTUS41 KLWX 050520
TAFDCA
TAF
KDCA 050520Z 0506/0606 34011KT P6SM -SHRA OVC050
     FM050700 34011KT 6SM -RA BR OVC035
     FM050900 34012G19KT 3SM -SN BR OVC020
     FM051100 34013KT P6SM OVC040
     FM051500 32015G24KT P6SM SCT150
     FM052100 31009KT P6SM SKC=

USA.gov is the U.S. government's official web portal to all federal, state and local government web resources and services.